Messwerte Bom Jesus

Temperatur

Temperatur
°C
1593813600 19.00 19.00 27
1593817200 20.00 20.00
1593820800 21.00 21.00 25
1593824400 22.00 22.00 24
1593828000 23.00 23.00 22
1593831600 0.00 0.00 23
1593835200 1.00 1.00 19
1593838800 2.00 2.00 19
1593842400 3.00 3.00
1593846000 4.00 4.00 18
1593849600 5.00 5.00 18
1593853200 6.00 6.00 18
1593856800 7.00 7.00 18
1593860400 8.00 8.00 21
1593864000 9.00 9.00 25
1593867600 10.00 10.00 28
1593871200 11.00 11.00
1593874800 12.00 12.00 30
1593878400 13.00 13.00
1593882000 14.00 14.00 33
1593885600 15.00 15.00 32
1593889200 16.00 16.00
1593892800 17.00 17.00 30
1593896400 18.00 18.00 27

Aktuellste Messwerte

Wettercharakter
Wetter: meist klar
Temperatur
27 °C
Feuchtigkeit
40 %
Wind
15 km/hWindrichtung: Südost
Luftdruck
1015 hPa
Messzeit: 4. Juli 2020, 18.00Datenquelle: METAR

Wind

Windrichtung Böen Mittelwind
° km/h km/h
1593813600 19.00 18.00 - 19.00 110° 5
1593817200 20.00 19.00 - 20.00
1593820800 21.00 20.00 - 21.00 110° 10
1593824400 22.00 21.00 - 22.00 120° 5
1593828000 23.00 22.00 - 23.00 0
1593831600 0.00 23.00 - 0.00 50° 5
1593835200 1.00 0.00 - 1.00 220° 5
1593838800 2.00 1.00 - 2.00 250° 5
1593842400 3.00 2.00 - 3.00
1593846000 4.00 3.00 - 4.00 220° 5
1593849600 5.00 4.00 - 5.00 220° 5
1593853200 6.00 5.00 - 6.00 210° 10
1593856800 7.00 6.00 - 7.00 200° 10
1593860400 8.00 7.00 - 8.00 200° 10
1593864000 9.00 8.00 - 9.00 5
1593867600 10.00 9.00 - 10.00 220° 5
1593871200 11.00 10.00 - 11.00
1593874800 12.00 11.00 - 12.00 15
1593878400 13.00 12.00 - 13.00
1593882000 14.00 13.00 - 14.00 120° 20
1593885600 15.00 14.00 - 15.00 110° 20
1593889200 16.00 15.00 - 16.00
1593892800 17.00 16.00 - 17.00 120° 20
1593896400 18.00 17.00 - 18.00 120° 15

Ihre Wetterstation

Fehlt Ihre Wetterstation auf unserem Portal?

Schreiben Sie an network@meteonews.ch